首页
METAR-TAF:

METAR-TAF

机场 :

锡利群岛, 英格兰

纬度: 49-55N, 经度: 006-18W, 海拔: 31米

当前天气观测

该预报发布于21小时和59分钟前的16:50 UTC
风速17节,风向西转西南
温度 10°C
湿度 93%
气压 1025 hPa
能見度: 6000
少量云层高于1500英尺
散云层高于3000英尺
小雨

METAR: EGHE 221650Z 24017KT 6000 -RA FEW015 SCT030 10/09 Q1025

时间: 14:49 (14:49 UTC)

预报

该预报发布于25小时和1分钟前的13:48 UTC
预报有效从22日的 15点(UTC)到 22日的 18点(UTC)
风速16节,风向西转西南
能见度10公里或以上
少量云层高于1500英尺
散云层高于3500英尺
成为
从 22日的 15点(UTC)到 22日的 18点(UTC)
能見度: 8000
小雨
短暂存在
从 22日的 15点(UTC)到 22日的 18点(UTC)
风速18节,风向西,有时为28节阵风
多云层高于900英尺

TAF: EGHE 221348Z 2215/2218 25016KT 9999 FEW015 SCT035 BECMG 2215/2218 8000 -RA TEMPO 2215/2218 26018G28KT RA BKN009

超过4000个机场的气象观测和天气预报(METAR&TAF报告)。

可查询的气象台以黄色和红色小点在地图上表示。

将鼠标移到小点上方,可查看气象台名称。

然后点击查看天气观测和预报。

如需切换地图:点击带黑十字的绿色按钮放大地图;点击带横线的绿色按钮缩小地图;或者点击绿色箭头查看邻近地区的地图。


METAR-TAF: